sensor_id;sensor_type;location;lat;lon;timestamp;P1;durP1;ratioP1;P2;durP2;ratioP2
14768;SDS011;7476;49.404;11.152;2023-01-09T00:01:32;17.67;;;12.70;;
14768;SDS011;7476;49.404;11.152;2023-01-09T00:04:00;19.20;;;12.60;;
14768;SDS011;7476;49.404;11.152;2023-01-09T00:06:27;20.90;;;14.27;;
14768;SDS011;7476;49.404;11.152;2023-01-09T00:08:54;18.77;;;13.73;;
14768;SDS011;7476;49.404;11.152;2023-01-09T00:11:20;19.83;;;14.00;;
14768;SDS011;7476;49.404;11.152;2023-01-09T00:13:47;18.83;;;12.80;;
14768;SDS011;7476;49.404;11.152;2023-01-09T00:16:14;20.43;;;13.13;;
14768;SDS011;7476;49.404;11.152;2023-01-09T00:18:42;20.57;;;13.87;;
14768;SDS011;7476;49.404;11.152;2023-01-09T00:21:10;19.40;;;13.47;;
14768;SDS011;7476;49.404;11.152;2023-01-09T00:23:38;19.10;;;13.43;;
14768;SDS011;7476;49.404;11.152;2023-01-09T00:26:05;18.50;;;13.27;;
14768;SDS011;7476;49.404;11.152;2023-01-09T00:28:33;18.90;;;13.20;;
14768;SDS011;7476;49.404;11.152;2023-01-09T00:31:01;19.13;;;12.77;;
14768;SDS011;7476;49.404;11.152;2023-01-09T00:33:30;19.73;;;13.17;;
14768;SDS011;7476;49.404;11.152;2023-01-09T00:36:00;17.10;;;12.63;;
14768;SDS011;7476;49.404;11.152;2023-01-09T00:38:27;17.47;;;12.13;;
14768;SDS011;7476;49.404;11.152;2023-01-09T00:40:54;17.23;;;12.70;;
14768;SDS011;7476;49.404;11.152;2023-01-09T00:43:21;17.30;;;11.50;;
14768;SDS011;7476;49.404;11.152;2023-01-09T00:45:52;16.00;;;10.97;;
14768;SDS011;7476;49.404;11.152;2023-01-09T00:48:19;17.60;;;12.67;;
14768;SDS011;7476;49.404;11.152;2023-01-09T00:50:51;17.97;;;12.87;;
14768;SDS011;7476;49.404;11.152;2023-01-09T00:53:20;16.63;;;12.33;;
14768;SDS011;7476;49.404;11.152;2023-01-09T00:55:48;20.23;;;13.47;;
14768;SDS011;7476;49.404;11.152;2023-01-09T00:58:15;16.63;;;11.90;;
14768;SDS011;7476;49.404;11.152;2023-01-09T01:00:42;18.63;;;12.30;;
14768;SDS011;7476;49.404;11.152;2023-01-09T01:03:09;20.40;;;13.70;;
14768;SDS011;7476;49.404;11.152;2023-01-09T01:05:36;20.53;;;13.70;;
14768;SDS011;7476;49.404;11.152;2023-01-09T01:08:21;21.37;;;13.03;;
14768;SDS011;7476;49.404;11.152;2023-01-09T01:10:48;18.30;;;11.97;;
14768;SDS011;7476;49.404;11.152;2023-01-09T01:13:15;17.83;;;12.73;;
14768;SDS011;7476;49.404;11.152;2023-01-09T01:15:43;19.13;;;13.20;;
14768;SDS011;7476;49.404;11.152;2023-01-09T01:18:10;16.37;;;12.07;;
14768;SDS011;7476;49.404;11.152;2023-01-09T01:20:38;17.43;;;12.30;;
14768;SDS011;7476;49.404;11.152;2023-01-09T01:23:06;20.03;;;13.47;;
14768;SDS011;7476;49.404;11.152;2023-01-09T01:25:35;19.30;;;13.63;;
14768;SDS011;7476;49.404;11.152;2023-01-09T01:28:03;18.17;;;12.70;;
14768;SDS011;7476;49.404;11.152;2023-01-09T01:30:30;19.67;;;13.73;;
14768;SDS011;7476;49.404;11.152;2023-01-09T01:32:56;17.70;;;12.90;;
14768;SDS011;7476;49.404;11.152;2023-01-09T01:35:23;21.27;;;14.00;;
14768;SDS011;7476;49.404;11.152;2023-01-09T01:37:50;18.93;;;13.60;;
14768;SDS011;7476;49.404;11.152;2023-01-09T01:40:17;17.87;;;12.93;;
14768;SDS011;7476;49.404;11.152;2023-01-09T01:42:46;19.83;;;13.00;;
14768;SDS011;7476;49.404;11.152;2023-01-09T01:45:14;19.97;;;13.27;;
14768;SDS011;7476;49.404;11.152;2023-01-09T01:47:45;18.93;;;12.70;;
14768;SDS011;7476;49.404;11.152;2023-01-09T01:50:20;19.73;;;13.60;;
14768;SDS011;7476;49.404;11.152;2023-01-09T01:52:53;18.83;;;12.63;;
14768;SDS011;7476;49.404;11.152;2023-01-09T01:55:24;21.47;;;13.40;;
14768;SDS011;7476;49.404;11.152;2023-01-09T01:57:53;19.13;;;13.70;;
14768;SDS011;7476;49.404;11.152;2023-01-09T02:00:29;19.53;;;12.97;;
14768;SDS011;7476;49.404;11.152;2023-01-09T02:02:59;22.33;;;13.67;;
14768;SDS011;7476;49.404;11.152;2023-01-09T02:05:27;20.70;;;13.57;;
14768;SDS011;7476;49.404;11.152;2023-01-09T02:07:54;21.70;;;14.20;;
14768;SDS011;7476;49.404;11.152;2023-01-09T02:10:20;20.87;;;13.87;;
14768;SDS011;7476;49.404;11.152;2023-01-09T02:12:48;20.83;;;14.40;;
14768;SDS011;7476;49.404;11.152;2023-01-09T02:15:16;21.73;;;13.43;;
14768;SDS011;7476;49.404;11.152;2023-01-09T02:17:50;19.23;;;13.30;;
14768;SDS011;7476;49.404;11.152;2023-01-09T02:20:37;19.07;;;13.80;;
14768;SDS011;7476;49.404;11.152;2023-01-09T02:26:27;18.23;;;12.93;;
14768;SDS011;7476;49.404;11.152;2023-01-09T02:29:36;19.23;;;13.17;;
14768;SDS011;7476;49.404;11.152;2023-01-09T02:32:13;16.63;;;12.40;;
14768;SDS011;7476;49.404;11.152;2023-01-09T02:34:52;20.30;;;12.40;;
14768;SDS011;7476;49.404;11.152;2023-01-09T02:37:30;16.63;;;11.57;;
14768;SDS011;7476;49.404;11.152;2023-01-09T02:40:07;15.13;;;11.03;;
14768;SDS011;7476;49.404;11.152;2023-01-09T02:42:40;16.47;;;11.57;;
14768;SDS011;7476;49.404;11.152;2023-01-09T02:45:09;16.80;;;11.73;;
14768;SDS011;7476;49.404;11.152;2023-01-09T02:47:41;15.80;;;12.20;;
14768;SDS011;7476;49.404;11.152;2023-01-09T02:50:09;17.33;;;11.53;;
14768;SDS011;7476;49.404;11.152;2023-01-09T02:52:47;17.37;;;11.97;;
14768;SDS011;7476;49.404;11.152;2023-01-09T02:55:30;17.63;;;11.90;;
14768;SDS011;7476;49.404;11.152;2023-01-09T02:58:08;16.57;;;12.23;;
14768;SDS011;7476;49.404;11.152;2023-01-09T03:00:43;18.13;;;12.17;;
14768;SDS011;7476;49.404;11.152;2023-01-09T03:03:17;18.77;;;12.67;;
14768;SDS011;7476;49.404;11.152;2023-01-09T03:05:50;16.83;;;12.20;;
14768;SDS011;7476;49.404;11.152;2023-01-09T03:08:22;17.90;;;12.17;;
14768;SDS011;7476;49.404;11.152;2023-01-09T03:10:54;19.23;;;12.93;;
14768;SDS011;7476;49.404;11.152;2023-01-09T03:13:24;19.23;;;12.40;;
14768;SDS011;7476;49.404;11.152;2023-01-09T03:15:57;18.20;;;12.93;;
14768;SDS011;7476;49.404;11.152;2023-01-09T03:18:29;19.53;;;13.37;;
14768;SDS011;7476;49.404;11.152;2023-01-09T03:20:57;19.73;;;13.60;;
14768;SDS011;7476;49.404;11.152;2023-01-09T03:23:24;18.53;;;13.13;;
14768;SDS011;7476;49.404;11.152;2023-01-09T03:25:51;18.77;;;12.90;;
14768;SDS011;7476;49.404;11.152;2023-01-09T03:28:22;18.97;;;12.37;;
14768;SDS011;7476;49.404;11.152;2023-01-09T03:30:51;20.63;;;13.90;;
14768;SDS011;7476;49.404;11.152;2023-01-09T03:33:18;19.87;;;13.47;;
14768;SDS011;7476;49.404;11.152;2023-01-09T03:35:46;20.53;;;13.40;;
14768;SDS011;7476;49.404;11.152;2023-01-09T03:38:13;18.80;;;13.33;;
14768;SDS011;7476;49.404;11.152;2023-01-09T03:40:40;20.30;;;14.10;;
14768;SDS011;7476;49.404;11.152;2023-01-09T03:43:08;20.87;;;13.83;;
14768;SDS011;7476;49.404;11.152;2023-01-09T03:45:35;19.67;;;13.53;;
14768;SDS011;7476;49.404;11.152;2023-01-09T03:48:01;23.57;;;15.33;;
14768;SDS011;7476;49.404;11.152;2023-01-09T03:50:28;19.97;;;13.73;;
14768;SDS011;7476;49.404;11.152;2023-01-09T03:52:56;23.57;;;15.90;;
14768;SDS011;7476;49.404;11.152;2023-01-09T03:55:23;23.13;;;15.00;;
14768;SDS011;7476;49.404;11.152;2023-01-09T03:57:49;23.43;;;15.70;;
14768;SDS011;7476;49.404;11.152;2023-01-09T04:00:17;21.40;;;14.33;;
14768;SDS011;7476;49.404;11.152;2023-01-09T04:02:44;21.37;;;15.20;;
14768;SDS011;7476;49.404;11.152;2023-01-09T04:05:11;21.63;;;14.67;;
14768;SDS011;7476;49.404;11.152;2023-01-09T04:07:38;20.90;;;15.67;;
14768;SDS011;7476;49.404;11.152;2023-01-09T04:10:06;21.80;;;15.10;;
14768;SDS011;7476;49.404;11.152;2023-01-09T04:12:34;23.50;;;15.90;;
14768;SDS011;7476;49.404;11.152;2023-01-09T04:15:01;23.67;;;15.33;;
14768;SDS011;7476;49.404;11.152;2023-01-09T04:17:27;22.13;;;15.70;;
14768;SDS011;7476;49.404;11.152;2023-01-09T04:19:54;22.03;;;14.87;;
14768;SDS011;7476;49.404;11.152;2023-01-09T04:22:21;21.07;;;14.97;;
14768;SDS011;7476;49.404;11.152;2023-01-09T04:24:47;22.13;;;14.60;;
14768;SDS011;7476;49.404;11.152;2023-01-09T04:27:15;21.07;;;14.07;;
14768;SDS011;7476;49.404;11.152;2023-01-09T04:29:42;20.50;;;14.67;;
14768;SDS011;7476;49.404;11.152;2023-01-09T04:32:08;21.70;;;15.47;;
14768;SDS011;7476;49.404;11.152;2023-01-09T04:34:35;19.50;;;14.20;;
14768;SDS011;7476;49.404;11.152;2023-01-09T04:37:02;21.77;;;14.77;;
14768;SDS011;7476;49.404;11.152;2023-01-09T04:39:28;21.77;;;14.70;;
14768;SDS011;7476;49.404;11.152;2023-01-09T04:41:55;20.37;;;14.70;;
14768;SDS011;7476;49.404;11.152;2023-01-09T04:44:23;20.20;;;14.60;;
14768;SDS011;7476;49.404;11.152;2023-01-09T04:46:51;20.10;;;13.93;;
14768;SDS011;7476;49.404;11.152;2023-01-09T04:49:18;19.50;;;13.63;;
14768;SDS011;7476;49.404;11.152;2023-01-09T04:51:45;18.63;;;13.77;;
14768;SDS011;7476;49.404;11.152;2023-01-09T04:54:12;21.10;;;13.73;;
14768;SDS011;7476;49.404;11.152;2023-01-09T04:56:39;18.43;;;13.23;;
14768;SDS011;7476;49.404;11.152;2023-01-09T04:59:06;18.37;;;14.03;;
14768;SDS011;7476;49.404;11.152;2023-01-09T05:01:34;17.57;;;13.33;;
14768;SDS011;7476;49.404;11.152;2023-01-09T05:04:01;18.27;;;13.37;;
14768;SDS011;7476;49.404;11.152;2023-01-09T05:06:28;17.87;;;13.90;;
14768;SDS011;7476;49.404;11.152;2023-01-09T05:08:55;20.77;;;13.73;;
14768;SDS011;7476;49.404;11.152;2023-01-09T05:11:22;19.27;;;14.13;;
14768;SDS011;7476;49.404;11.152;2023-01-09T05:13:50;16.90;;;13.27;;
14768;SDS011;7476;49.404;11.152;2023-01-09T05:16:17;19.53;;;14.13;;
14768;SDS011;7476;49.404;11.152;2023-01-09T05:18:45;18.60;;;13.67;;
14768;SDS011;7476;49.404;11.152;2023-01-09T05:21:12;18.00;;;13.73;;
14768;SDS011;7476;49.404;11.152;2023-01-09T05:23:39;18.53;;;13.87;;
14768;SDS011;7476;49.404;11.152;2023-01-09T05:26:05;17.07;;;14.03;;
14768;SDS011;7476;49.404;11.152;2023-01-09T05:28:32;17.83;;;13.63;;
14768;SDS011;7476;49.404;11.152;2023-01-09T05:30:59;16.87;;;13.37;;
14768;SDS011;7476;49.404;11.152;2023-01-09T05:33:25;18.50;;;13.40;;
14768;SDS011;7476;49.404;11.152;2023-01-09T05:35:53;17.50;;;13.53;;
14768;SDS011;7476;49.404;11.152;2023-01-09T05:38:20;16.77;;;13.47;;
14768;SDS011;7476;49.404;11.152;2023-01-09T05:40:46;15.47;;;12.23;;
14768;SDS011;7476;49.404;11.152;2023-01-09T05:43:13;17.97;;;13.27;;
14768;SDS011;7476;49.404;11.152;2023-01-09T05:45:40;16.20;;;11.93;;
14768;SDS011;7476;49.404;11.152;2023-01-09T05:48:06;16.23;;;12.97;;
14768;SDS011;7476;49.404;11.152;2023-01-09T05:50:33;15.17;;;11.53;;
14768;SDS011;7476;49.404;11.152;2023-01-09T05:53:01;16.87;;;12.60;;
14768;SDS011;7476;49.404;11.152;2023-01-09T05:55:28;16.03;;;11.77;;
14768;SDS011;7476;49.404;11.152;2023-01-09T05:57:54;14.13;;;11.47;;
14768;SDS011;7476;49.404;11.152;2023-01-09T06:00:21;14.13;;;11.60;;
14768;SDS011;7476;49.404;11.152;2023-01-09T06:02:48;14.37;;;9.97;;
14768;SDS011;7476;49.404;11.152;2023-01-09T06:05:14;13.30;;;10.77;;
14768;SDS011;7476;49.404;11.152;2023-01-09T06:07:41;14.07;;;10.40;;
14768;SDS011;7476;49.404;11.152;2023-01-09T06:10:11;10.70;;;9.13;;
14768;SDS011;7476;49.404;11.152;2023-01-09T06:12:38;9.70;;;8.40;;
14768;SDS011;7476;49.404;11.152;2023-01-09T06:15:06;9.90;;;7.73;;
14768;SDS011;7476;49.404;11.152;2023-01-09T06:17:33;8.07;;;6.27;;
14768;SDS011;7476;49.404;11.152;2023-01-09T06:20:00;5.53;;;4.90;;
14768;SDS011;7476;49.404;11.152;2023-01-09T06:22:26;5.53;;;4.33;;
14768;SDS011;7476;49.404;11.152;2023-01-09T06:24:53;6.47;;;4.03;;
14768;SDS011;7476;49.404;11.152;2023-01-09T06:27:21;4.43;;;3.27;;
14768;SDS011;7476;49.404;11.152;2023-01-09T06:29:48;2.87;;;2.60;;
14768;SDS011;7476;49.404;11.152;2023-01-09T06:32:14;2.20;;;2.00;;
14768;SDS011;7476;49.404;11.152;2023-01-09T06:34:41;1.90;;;1.80;;
14768;SDS011;7476;49.404;11.152;2023-01-09T06:37:08;2.50;;;1.60;;
14768;SDS011;7476;49.404;11.152;2023-01-09T06:39:35;1.30;;;1.20;;
14768;SDS011;7476;49.404;11.152;2023-01-09T06:42:01;1.30;;;1.20;;
14768;SDS011;7476;49.404;11.152;2023-01-09T06:44:29;1.20;;;1.10;;
14768;SDS011;7476;49.404;11.152;2023-01-09T06:46:57;1.10;;;1.00;;
14768;SDS011;7476;49.404;11.152;2023-01-09T06:49:23;1.27;;;1.13;;
14768;SDS011;7476;49.404;11.152;2023-01-09T06:51:50;1.20;;;1.10;;
14768;SDS011;7476;49.404;11.152;2023-01-09T06:54:17;0.83;;;0.83;;
14768;SDS011;7476;49.404;11.152;2023-01-09T06:56:44;1.67;;;1.20;;
14768;SDS011;7476;49.404;11.152;2023-01-09T06:59:11;1.10;;;1.00;;
14768;SDS011;7476;49.404;11.152;2023-01-09T07:01:39;1.20;;;1.10;;
14768;SDS011;7476;49.404;11.152;2023-01-09T07:04:06;1.00;;;1.00;;
14768;SDS011;7476;49.404;11.152;2023-01-09T07:06:34;1.00;;;1.00;;
14768;SDS011;7476;49.404;11.152;2023-01-09T07:09:00;1.23;;;1.13;;
14768;SDS011;7476;49.404;11.152;2023-01-09T07:11:28;1.20;;;1.10;;
14768;SDS011;7476;49.404;11.152;2023-01-09T07:13:55;2.47;;;1.20;;
14768;SDS011;7476;49.404;11.152;2023-01-09T07:16:21;1.93;;;1.20;;
14768;SDS011;7476;49.404;11.152;2023-01-09T07:18:49;1.10;;;1.00;;
14768;SDS011;7476;49.404;11.152;2023-01-09T07:21:16;1.30;;;1.20;;
14768;SDS011;7476;49.404;11.152;2023-01-09T07:23:43;1.23;;;1.10;;
14768;SDS011;7476;49.404;11.152;2023-01-09T07:26:09;1.20;;;1.10;;
14768;SDS011;7476;49.404;11.152;2023-01-09T07:28:36;1.63;;;1.00;;
14768;SDS011;7476;49.404;11.152;2023-01-09T07:31:02;1.30;;;1.20;;
14768;SDS011;7476;49.404;11.152;2023-01-09T07:33:31;1.70;;;1.17;;
14768;SDS011;7476;49.404;11.152;2023-01-09T07:36:00;1.10;;;1.00;;
14768;SDS011;7476;49.404;11.152;2023-01-09T07:38:26;2.07;;;1.20;;
14768;SDS011;7476;49.404;11.152;2023-01-09T07:40:53;1.20;;;1.10;;
14768;SDS011;7476;49.404;11.152;2023-01-09T07:43:20;1.17;;;1.07;;
14768;SDS011;7476;49.404;11.152;2023-01-09T07:45:46;1.53;;;1.10;;
14768;SDS011;7476;49.404;11.152;2023-01-09T07:48:13;1.73;;;1.10;;
14768;SDS011;7476;49.404;11.152;2023-01-09T07:50:40;2.30;;;1.10;;
14768;SDS011;7476;49.404;11.152;2023-01-09T07:53:08;1.03;;;0.90;;
14768;SDS011;7476;49.404;11.152;2023-01-09T07:55:34;1.63;;;1.23;;
14768;SDS011;7476;49.404;11.152;2023-01-09T07:58:01;1.77;;;1.10;;
14768;SDS011;7476;49.404;11.152;2023-01-09T08:00:27;1.70;;;1.13;;
14768;SDS011;7476;49.404;11.152;2023-01-09T08:02:54;1.07;;;1.07;;
14768;SDS011;7476;49.404;11.152;2023-01-09T08:05:21;1.53;;;1.20;;
14768;SDS011;7476;49.404;11.152;2023-01-09T08:07:47;1.73;;;1.17;;
14768;SDS011;7476;49.404;11.152;2023-01-09T08:10:16;1.67;;;1.33;;
14768;SDS011;7476;49.404;11.152;2023-01-09T08:12:44;1.37;;;1.10;;
14768;SDS011;7476;49.404;11.152;2023-01-09T08:15:11;4.10;;;1.20;;
14768;SDS011;7476;49.404;11.152;2023-01-09T08:17:39;1.70;;;1.30;;
14768;SDS011;7476;49.404;11.152;2023-01-09T08:20:07;1.83;;;1.30;;
14768;SDS011;7476;49.404;11.152;2023-01-09T08:22:35;1.90;;;1.30;;
14768;SDS011;7476;49.404;11.152;2023-01-09T08:25:02;4.10;;;1.50;;
14768;SDS011;7476;49.404;11.152;2023-01-09T08:27:31;2.20;;;1.50;;
14768;SDS011;7476;49.404;11.152;2023-01-09T08:29:58;3.00;;;1.33;;
14768;SDS011;7476;49.404;11.152;2023-01-09T08:32:24;3.20;;;1.40;;
14768;SDS011;7476;49.404;11.152;2023-01-09T08:34:51;1.40;;;1.27;;
14768;SDS011;7476;49.404;11.152;2023-01-09T08:37:18;5.30;;;1.47;;
14768;SDS011;7476;49.404;11.152;2023-01-09T08:39:45;2.73;;;1.27;;
14768;SDS011;7476;49.404;11.152;2023-01-09T08:42:11;2.40;;;1.27;;
14768;SDS011;7476;49.404;11.152;2023-01-09T08:44:57;2.83;;;1.57;;
14768;SDS011;7476;49.404;11.152;2023-01-09T08:47:41;2.90;;;1.40;;
14768;SDS011;7476;49.404;11.152;2023-01-09T08:50:08;3.47;;;1.53;;
14768;SDS011;7476;49.404;11.152;2023-01-09T08:52:35;3.23;;;1.27;;
14768;SDS011;7476;49.404;11.152;2023-01-09T08:55:02;5.07;;;1.47;;
14768;SDS011;7476;49.404;11.152;2023-01-09T08:57:29;3.23;;;1.43;;
14768;SDS011;7476;49.404;11.152;2023-01-09T08:59:57;2.27;;;1.30;;
14768;SDS011;7476;49.404;11.152;2023-01-09T09:02:24;1.63;;;1.30;;
14768;SDS011;7476;49.404;11.152;2023-01-09T09:04:50;3.67;;;1.50;;
14768;SDS011;7476;49.404;11.152;2023-01-09T09:07:17;4.67;;;1.70;;
14768;SDS011;7476;49.404;11.152;2023-01-09T09:09:50;2.53;;;1.50;;
14768;SDS011;7476;49.404;11.152;2023-01-09T09:12:17;3.77;;;1.30;;
14768;SDS011;7476;49.404;11.152;2023-01-09T09:14:44;3.73;;;1.60;;
14768;SDS011;7476;49.404;11.152;2023-01-09T09:17:29;4.70;;;1.50;;
14768;SDS011;7476;49.404;11.152;2023-01-09T09:19:57;2.27;;;1.20;;
14768;SDS011;7476;49.404;11.152;2023-01-09T09:22:24;3.57;;;1.40;;
14768;SDS011;7476;49.404;11.152;2023-01-09T09:24:51;5.47;;;1.53;;
14768;SDS011;7476;49.404;11.152;2023-01-09T09:27:17;5.60;;;1.60;;
14768;SDS011;7476;49.404;11.152;2023-01-09T09:29:44;2.33;;;1.40;;
14768;SDS011;7476;49.404;11.152;2023-01-09T09:32:11;3.23;;;1.70;;
14768;SDS011;7476;49.404;11.152;2023-01-09T09:34:39;3.70;;;1.47;;
14768;SDS011;7476;49.404;11.152;2023-01-09T09:37:05;4.80;;;2.20;;
14768;SDS011;7476;49.404;11.152;2023-01-09T09:39:32;3.33;;;1.70;;
14768;SDS011;7476;49.404;11.152;2023-01-09T09:42:04;4.13;;;1.53;;
14768;SDS011;7476;49.404;11.152;2023-01-09T09:45:14;3.23;;;1.30;;
14768;SDS011;7476;49.404;11.152;2023-01-09T09:47:50;3.97;;;1.50;;
14768;SDS011;7476;49.404;11.152;2023-01-09T09:50:27;3.47;;;1.40;;
14768;SDS011;7476;49.404;11.152;2023-01-09T09:53:09;4.13;;;1.80;;
14768;SDS011;7476;49.404;11.152;2023-01-09T09:55:40;3.23;;;1.30;;
14768;SDS011;7476;49.404;11.152;2023-01-09T09:58:10;3.87;;;1.67;;
14768;SDS011;7476;49.404;11.152;2023-01-09T10:00:45;2.07;;;1.30;;
14768;SDS011;7476;49.404;11.152;2023-01-09T10:03:14;3.07;;;1.43;;
14768;SDS011;7476;49.404;11.152;2023-01-09T10:05:49;3.50;;;1.40;;
14768;SDS011;7476;49.404;11.152;2023-01-09T10:08:19;1.70;;;1.60;;
14768;SDS011;7476;49.404;11.152;2023-01-09T10:10:55;2.70;;;1.40;;
14768;SDS011;7476;49.404;11.152;2023-01-09T10:13:22;2.90;;;1.30;;
14768;SDS011;7476;49.404;11.152;2023-01-09T10:16:10;2.33;;;1.40;;
14768;SDS011;7476;49.404;11.152;2023-01-09T10:18:49;4.10;;;1.40;;
14768;SDS011;7476;49.404;11.152;2023-01-09T10:21:27;2.57;;;1.57;;
14768;SDS011;7476;49.404;11.152;2023-01-09T10:24:04;2.63;;;1.30;;
14768;SDS011;7476;49.404;11.152;2023-01-09T10:26:50;4.30;;;1.40;;
14768;SDS011;7476;49.404;11.152;2023-01-09T10:29:21;3.77;;;1.57;;
14768;SDS011;7476;49.404;11.152;2023-01-09T10:32:03;3.10;;;1.30;;
14768;SDS011;7476;49.404;11.152;2023-01-09T10:34:49;4.03;;;1.53;;
14768;SDS011;7476;49.404;11.152;2023-01-09T10:37:27;3.60;;;1.50;;
14768;SDS011;7476;49.404;11.152;2023-01-09T10:39:56;4.10;;;1.50;;
14768;SDS011;7476;49.404;11.152;2023-01-09T10:42:27;3.90;;;1.43;;
14768;SDS011;7476;49.404;11.152;2023-01-09T10:45:00;3.23;;;1.53;;
14768;SDS011;7476;49.404;11.152;2023-01-09T10:47:31;4.70;;;1.30;;
14768;SDS011;7476;49.404;11.152;2023-01-09T10:49:59;3.67;;;1.90;;
14768;SDS011;7476;49.404;11.152;2023-01-09T10:52:36;1.57;;;1.23;;
14768;SDS011;7476;49.404;11.152;2023-01-09T10:55:11;4.23;;;1.37;;
14768;SDS011;7476;49.404;11.152;2023-01-09T10:57:43;3.50;;;1.50;;
14768;SDS011;7476;49.404;11.152;2023-01-09T11:00:13;4.87;;;1.63;;
14768;SDS011;7476;49.404;11.152;2023-01-09T11:02:44;2.80;;;1.30;;
14768;SDS011;7476;49.404;11.152;2023-01-09T11:05:12;2.83;;;1.37;;
14768;SDS011;7476;49.404;11.152;2023-01-09T11:07:44;2.90;;;1.40;;
14768;SDS011;7476;49.404;11.152;2023-01-09T11:10:14;2.07;;;1.27;;
14768;SDS011;7476;49.404;11.152;2023-01-09T11:12:41;2.57;;;1.20;;
14768;SDS011;7476;49.404;11.152;2023-01-09T11:18:18;2.50;;;1.43;;
14768;SDS011;7476;49.404;11.152;2023-01-09T11:20:48;2.03;;;1.30;;
14768;SDS011;7476;49.404;11.152;2023-01-09T11:24:34;2.43;;;1.50;;
14768;SDS011;7476;49.404;11.152;2023-01-09T11:27:17;3.40;;;1.20;;
14768;SDS011;7476;49.404;11.152;2023-01-09T11:32:50;2.80;;;1.50;;
14768;SDS011;7476;49.404;11.152;2023-01-09T11:35:18;2.13;;;1.30;;
14768;SDS011;7476;49.404;11.152;2023-01-09T11:37:48;2.50;;;1.20;;
14768;SDS011;7476;49.404;11.152;2023-01-09T11:40:25;2.80;;;1.50;;
14768;SDS011;7476;49.404;11.152;2023-01-09T11:43:02;4.77;;;1.57;;
14768;SDS011;7476;49.404;11.152;2023-01-09T11:45:31;1.50;;;1.27;;
14768;SDS011;7476;49.404;11.152;2023-01-09T11:47:59;4.17;;;1.30;;
14768;SDS011;7476;49.404;11.152;2023-01-09T11:50:29;3.57;;;1.40;;
14768;SDS011;7476;49.404;11.152;2023-01-09T11:53:10;1.67;;;1.27;;
14768;SDS011;7476;49.404;11.152;2023-01-09T11:55:40;3.23;;;1.40;;
14768;SDS011;7476;49.404;11.152;2023-01-09T11:58:08;1.90;;;1.40;;
14768;SDS011;7476;49.404;11.152;2023-01-09T12:00:39;3.77;;;1.40;;
14768;SDS011;7476;49.404;11.152;2023-01-09T12:03:16;2.07;;;1.23;;
14768;SDS011;7476;49.404;11.152;2023-01-09T12:05:52;2.33;;;1.20;;
14768;SDS011;7476;49.404;11.152;2023-01-09T12:08:30;2.00;;;1.30;;
14768;SDS011;7476;49.404;11.152;2023-01-09T12:11:08;3.20;;;1.40;;
14768;SDS011;7476;49.404;11.152;2023-01-09T12:13:57;4.50;;;1.37;;
14768;SDS011;7476;49.404;11.152;2023-01-09T12:16:36;2.43;;;1.23;;
14768;SDS011;7476;49.404;11.152;2023-01-09T12:19:15;4.47;;;1.80;;
14768;SDS011;7476;49.404;11.152;2023-01-09T12:22:05;1.90;;;1.40;;
14768;SDS011;7476;49.404;11.152;2023-01-09T12:24:42;2.37;;;1.40;;
14768;SDS011;7476;49.404;11.152;2023-01-09T12:27:26;1.77;;;1.30;;
14768;SDS011;7476;49.404;11.152;2023-01-09T12:30:18;2.80;;;1.20;;
14768;SDS011;7476;49.404;11.152;2023-01-09T12:32:55;3.23;;;1.30;;
14768;SDS011;7476;49.404;11.152;2023-01-09T12:35:32;3.07;;;1.70;;
14768;SDS011;7476;49.404;11.152;2023-01-09T12:38:09;1.70;;;1.23;;
14768;SDS011;7476;49.404;11.152;2023-01-09T12:40:52;3.23;;;1.57;;
14768;SDS011;7476;49.404;11.152;2023-01-09T12:43:35;2.93;;;1.67;;
14768;SDS011;7476;49.404;11.152;2023-01-09T12:46:11;2.37;;;1.40;;
14768;SDS011;7476;49.404;11.152;2023-01-09T12:48:43;2.40;;;1.20;;
14768;SDS011;7476;49.404;11.152;2023-01-09T12:51:20;2.13;;;1.20;;
14768;SDS011;7476;49.404;11.152;2023-01-09T12:53:54;3.03;;;1.40;;
14768;SDS011;7476;49.404;11.152;2023-01-09T12:56:25;2.30;;;1.53;;
14768;SDS011;7476;49.404;11.152;2023-01-09T12:58:59;4.10;;;1.60;;
14768;SDS011;7476;49.404;11.152;2023-01-09T13:01:33;2.00;;;1.30;;
14768;SDS011;7476;49.404;11.152;2023-01-09T13:04:08;2.03;;;1.50;;
14768;SDS011;7476;49.404;11.152;2023-01-09T13:06:41;2.40;;;1.33;;
14768;SDS011;7476;49.404;11.152;2023-01-09T13:09:16;1.37;;;1.27;;
14768;SDS011;7476;49.404;11.152;2023-01-09T13:11:48;4.37;;;1.57;;
14768;SDS011;7476;49.404;11.152;2023-01-09T13:14:26;4.80;;;1.30;;
14768;SDS011;7476;49.404;11.152;2023-01-09T13:17:04;2.20;;;1.30;;
14768;SDS011;7476;49.404;11.152;2023-01-09T13:19:36;4.33;;;1.53;;
14768;SDS011;7476;49.404;11.152;2023-01-09T13:22:04;3.07;;;1.50;;
14768;SDS011;7476;49.404;11.152;2023-01-09T13:24:33;1.80;;;1.30;;
14768;SDS011;7476;49.404;11.152;2023-01-09T13:27:05;1.57;;;1.17;;
14768;SDS011;7476;49.404;11.152;2023-01-09T13:29:37;3.30;;;1.50;;
14768;SDS011;7476;49.404;11.152;2023-01-09T13:32:13;1.70;;;1.23;;
14768;SDS011;7476;49.404;11.152;2023-01-09T13:34:51;3.83;;;1.37;;
14768;SDS011;7476;49.404;11.152;2023-01-09T13:37:21;4.33;;;1.83;;
14768;SDS011;7476;49.404;11.152;2023-01-09T13:39:54;4.50;;;1.63;;
14768;SDS011;7476;49.404;11.152;2023-01-09T13:42:22;2.67;;;1.97;;
14768;SDS011;7476;49.404;11.152;2023-01-09T13:45:18;2.07;;;1.30;;
14768;SDS011;7476;49.404;11.152;2023-01-09T13:48:01;1.90;;;1.20;;
14768;SDS011;7476;49.404;11.152;2023-01-09T13:50:51;2.57;;;1.30;;
14768;SDS011;7476;49.404;11.152;2023-01-09T13:56:12;3.27;;;1.60;;
14768;SDS011;7476;49.404;11.152;2023-01-09T14:01:39;1.43;;;1.07;;
14768;SDS011;7476;49.404;11.152;2023-01-09T14:07:16;2.60;;;1.37;;
14768;SDS011;7476;49.404;11.152;2023-01-09T14:09:48;1.97;;;1.30;;
14768;SDS011;7476;49.404;11.152;2023-01-09T14:12:17;5.10;;;1.40;;
14768;SDS011;7476;49.404;11.152;2023-01-09T14:14:46;2.43;;;1.60;;
14768;SDS011;7476;49.404;11.152;2023-01-09T14:17:17;3.23;;;1.60;;
14768;SDS011;7476;49.404;11.152;2023-01-09T14:19:51;3.43;;;1.90;;
14768;SDS011;7476;49.404;11.152;2023-01-09T14:22:22;3.13;;;1.60;;
14768;SDS011;7476;49.404;11.152;2023-01-09T14:24:50;3.30;;;1.70;;
14768;SDS011;7476;49.404;11.152;2023-01-09T14:30:29;4.50;;;1.47;;
14768;SDS011;7476;49.404;11.152;2023-01-09T14:33:00;1.43;;;1.30;;
14768;SDS011;7476;49.404;11.152;2023-01-09T14:35:31;2.17;;;1.50;;
14768;SDS011;7476;49.404;11.152;2023-01-09T14:38:05;2.43;;;1.50;;
14768;SDS011;7476;49.404;11.152;2023-01-09T14:40:47;2.37;;;1.47;;
14768;SDS011;7476;49.404;11.152;2023-01-09T14:43:21;2.70;;;1.30;;
14768;SDS011;7476;49.404;11.152;2023-01-09T14:45:53;1.77;;;1.40;;
14768;SDS011;7476;49.404;11.152;2023-01-09T14:48:25;1.80;;;1.20;;
14768;SDS011;7476;49.404;11.152;2023-01-09T14:50:52;1.93;;;1.40;;
14768;SDS011;7476;49.404;11.152;2023-01-09T14:53:21;2.10;;;1.50;;
14768;SDS011;7476;49.404;11.152;2023-01-09T14:55:51;2.37;;;1.20;;
14768;SDS011;7476;49.404;11.152;2023-01-09T14:58:20;2.23;;;1.40;;
14768;SDS011;7476;49.404;11.152;2023-01-09T15:00:49;3.10;;;1.40;;
14768;SDS011;7476;49.404;11.152;2023-01-09T15:03:19;2.90;;;1.40;;
14768;SDS011;7476;49.404;11.152;2023-01-09T15:05:48;2.43;;;1.60;;
14768;SDS011;7476;49.404;11.152;2023-01-09T15:08:17;2.33;;;1.40;;
14768;SDS011;7476;49.404;11.152;2023-01-09T15:10:47;1.93;;;1.70;;
14768;SDS011;7476;49.404;11.152;2023-01-09T15:13:16;3.40;;;1.60;;
14768;SDS011;7476;49.404;11.152;2023-01-09T15:15:52;2.73;;;1.57;;
14768;SDS011;7476;49.404;11.152;2023-01-09T15:18:20;4.43;;;1.40;;